This is the latest recevied weather packets stored in our database for station/object PY2CQC-13. If no packets are shown the sender has not sent any weather packets the latest 10 day(s).
| Time | Temp. | Humidity | Pressure | Rain* | Wind** | Luminosity | Snow |
|---|---|---|---|---|---|---|---|
| 1776969125 | 26.11° C | 52% | 1032.6 hPa | - | - | - | - |
| 1776967324 | 26.67° C | 52% | 1032.6 hPa | - | - | - | - |
| 1776965524 | 25° C | 56% | 1032.8 hPa | - | - | - | - |
| 1776963724 | 25° C | 56% | 1033.1 hPa | - | - | - | - |
| 1776961925 | 24.44° C | 58% | 1033.6 hPa | - | - | - | - |
| 1776960125 | 24.44° C | 58% | 1033.9 hPa | - | - | - | - |
| 1776958325 | 23.89° C | 58% | 1034.4 hPa | - | - | - | - |
| 1776956528 | 23.89° C | 58% | 1034.8 hPa | - | - | - | - |
| 1776954725 | 23.89° C | 57% | 1035.2 hPa | - | - | - | - |
| 1776952924 | 23.33° C | 59% | 1035.6 hPa | - | - | - | - |
| 1776951124 | 22.78° C | 58% | 1035.9 hPa | - | - | - | - |
| 1776949325 | 22.22° C | 60% | 1036.1 hPa | - | - | - | - |
| 1776947525 | 22.22° C | 61% | 1036.1 hPa | - | - | - | - |
| 1776945725 | 19.44° C | 68% | 1035.9 hPa | - | - | - | - |
| 1776943925 | 19.44° C | 68% | 1035.5 hPa | - | - | - | - |
| 1776942125 | 22.78° C | 58% | 1035.2 hPa | - | - | - | - |
| 1776940324 | 21.11° C | 64% | 1035.2 hPa | - | - | - | - |
| 1776938525 | 20° C | 66% | 1034.9 hPa | - | - | - | - |
| 1776936724 | 20° C | 66% | 1034.5 hPa | - | - | - | - |
| 1776934925 | 20° C | 67% | 1034.2 hPa | - | - | - | - |
| 1776933125 | 20.56° C | 67% | 1034.1 hPa | - | - | - | - |
| 1776931325 | 21.11° C | 66% | 1034 hPa | - | - | - | - |
| 1776929525 | 20.56° C | 67% | 1034 hPa | - | - | - | - |
| 1776927725 | 20.56° C | 67% | 1034.2 hPa | - | - | - | - |
| 1776925924 | 21.11° C | 66% | 1034.3 hPa | - | - | - | - |
* Rain since midnight (hover to see other rain measurements)
** Current wind speed in m/s (hover to see current wind gust speed)